• Join FlightAware (Why Join?)
  • Login
  • US Flag 
11:01PM EST


 

Airport Tracker/Info


-or-


 

Live Flight TrackerFlight Track Log ✈ GJS3710 ✈ 09-May-2013 ✈ KORD - KALB

Flight Track Log - Related Links

Times and Time Zones

All times are in EDT time to prevent confusion due to time zone crossing. See the GJS3710 flight status page for this flight to view local times or setup timezone preferences in your user account.

Time Position Orientation Groundspeed Altitude Reporting Facility
EDT Latitude Longitude Course Direction KTS MPH feet Rate Location/Type
09:17PM 42.0333 -87.8500 86° East 219 252 3,300  Level Chicago TRACON
09:18PM 42.0667 -87.7667 62° Northeast 275 316 5,600 2,040 Climbing Chicago TRACON
09:19PM 42.1659 -87.3523 66° East  Level FlightAware Approximate
09:19PM 42.0911 -87.6050 78° East 298 343 8,800  Level Chicago Center
09:20PM 42.2133 -87.2102 66° East  Level FlightAware Approximate
09:20PM 42.1006 -87.4908 84° East 306 352 11,500  Level Chicago Center
09:21PM 42.2607 -87.0679 66° East  Level FlightAware Approximate
09:21PM 42.1128 -87.3681 82° East 326 375 13,100  Level Chicago Center
09:22PM 42.2706 -86.9201 86° East  Level FlightAware Approximate
09:22PM 42.1267 -87.2036 83° East 363 418 14,900  Level Chicago Center
09:23PM 42.1358 -87.0639 85° East 375 432 16,400 1,440 Climbing Chicago Center
09:24PM 42.1458 -86.9186 85° East 387 445 17,900 1,500 Climbing Chicago Center
09:25PM 42.1558 -86.7694 85° East 399 459 19,500 1,500 Climbing Chicago Center
09:26PM 42.1667 -86.6050 85° East 415 478 21,100 1,200 Climbing Chicago Center
09:27PM 42.1769 -86.4419 85° East 433 498 22,100 960 Climbing Chicago Center
09:28PM 42.1875 -86.2717 85° East 451 519 23,100 960 Climbing Chicago Center
09:30PM 42.1986 -86.0964 85° East 465 535 24,100 960 Climbing Chicago Center
09:31PM 42.2106 -85.8972 85° East 475 547 25,200 960 Climbing Chicago Center
09:32PM 42.2217 -85.7178 85° East 481 554 26,200 960 Climbing Chicago Center
09:33PM 42.2317 -85.5347 86° East 488 562 27,200 960 Climbing Chicago Center
09:34PM 42.2425 -85.3508 85° East 493 567 28,200 1,020 Climbing Chicago Center
09:35PM 42.2556 -85.1342 85° East 495 570 29,400 1,080 Climbing Cleveland Center
09:36PM 42.2625 -84.9494 87° East 495 570 30,400 960 Climbing Cleveland Center
09:37PM 42.2778 -84.7650 84° East 496 571 31,400 900 Climbing Cleveland Center
09:38PM 42.2797 -84.5967 89° East 496 571 32,300 1,020 Climbing Cleveland Center
09:39PM 42.2942 -84.4122 84° East 491 565 33,500 1,260 Climbing Cleveland Center
09:40PM 42.3189 -84.2314 79° East 491 565 34,900 1,200 Climbing Cleveland Center
09:41PM 42.3450 -84.0586 78° East 491 565 36,000 900 Climbing Cleveland Center
09:42PM 42.3692 -83.8800 80° East 481 554 36,800 780 Climbing Cleveland Center
09:43PM 42.3928 -83.7069 79° East 476 548 37,600 780 Climbing Cleveland Center
09:44PM 42.4078 -83.5331 83° East 471 542 38,400 660 Climbing Cleveland Center
09:45PM 42.4183 -83.3564 85° East 466 536 39,000 300 Climbing Cleveland Center
09:46PM 42.4231 -83.1625 88° East 466 536 39,000  Level Cleveland Center
09:47PM 42.4289 -82.9856 87° East 461 531 39,000  Level Cleveland Center
09:48PM 42.4344 -82.8114 87° East 461 531 39,000  Level Cleveland Center
09:49PM 42.4378 -82.6342 88° East 461 531 39,000  Level Cleveland Center
09:50PM 42.4450 -82.4600 87° East 461 531 39,000 -480 Level Cleveland Center
09:51PM 42.4497 -82.2800 88° East 461 531 38,100 -960 Descending Cleveland Center
09:52PM 42.4542 -82.1056 88° East 461 531 37,100 -600 Descending Cleveland Center
09:53PM 42.4586 -81.9283 88° East 466 536 37,000 -60 Descending Cleveland Center
09:54PM 42.4647 -81.7428 87° East 471 542 37,000  Level Cleveland Center
09:55PM 42.4664 -81.5597 89° East 482 555 37,000  Level Cleveland Center
09:56PM 42.4700 -81.3714 88° East 488 562 37,000  Level Cleveland Center
09:57PM 42.4733 -81.1828 89° East 493 567 37,000  Level Cleveland Center
09:58PM 42.4781 -81.0167 88° East 493 567 37,000  Level Cleveland Center
09:59PM 42.4808 -80.8308 89° East 493 567 37,000  Level Cleveland Center
10:00PM 42.4831 -80.6481 89° East 488 562 37,000  Level Cleveland Center
10:01PM 42.4853 -80.4592 89° East 488 562 37,000  Level Cleveland Center
10:02PM 42.4869 -80.2792 89° East 488 562 37,000  Level Cleveland Center
10:03PM 42.4883 -80.0819 89° East 483 556 37,000  Level Cleveland Center
10:04PM 42.4917 -79.9158 88° East 483 556 37,000  Level Cleveland Center
10:05PM 42.4906 -79.7328 90° East 478 550 37,000  Level Cleveland Center
10:06PM 42.4931 -79.5525 89° East 478 550 37,000  Level Cleveland Center
10:07PM 42.4914 -79.3667 91° East 478 550 37,000  Level Cleveland Center
10:08PM 42.4975 -79.1864 87° East 478 550 37,000  Level Cleveland Center
10:09PM 42.5119 -79.0031 84° East 478 550 37,000 -120 Level Cleveland Center
10:10PM 42.5239 -78.8197 85° East 478 550 36,800 -660 Descending Cleveland Center
10:11PM 42.5356 -78.6417 85° East 483 556 35,700 -1,080 Descending Cleveland Center
10:12PM 42.5450 -78.4667 86° East 478 550 34,700 -1,020 Descending Cleveland Center
10:13PM 42.5583 -78.2858 84° East 473 544 33,700 -900 Descending Cleveland Center
10:14PM 42.5692 -78.1050 85° East 478 550 33,000 -360 Descending Cleveland Center
10:15PM 42.5797 -77.9242 85° East 478 550 33,000 -540 Level Cleveland Center
10:16PM 42.5881 -77.7489 86° East 478 550 32,000 -1,020 Descending Cleveland Center
10:18PM 42.6083 -77.4117 85° East 470 541 30,100 -1,020 Descending Boston Center
10:19PM 42.6181 -77.2375 86° East 470 541 29,100 -600 Descending Boston Center
10:20PM 42.6272 -77.0686 86° East 470 541 29,000 -60 Descending Boston Center
10:21PM 42.6361 -76.8972 86° East 456 525 29,000  Level Boston Center
10:22PM 42.6447 -76.7228 86° East 456 525 29,000  Level Boston Center
10:23PM 42.6533 -76.5508 86° East 461 531 29,000  Level Boston Center
10:24PM 42.6614 -76.3792 86° East 461 531 29,000  Level Boston Center
10:25PM 42.6719 -76.1933 86° East 455 524 29,000 -120 Level Boston Center
10:26PM 42.6783 -75.9903 87° East 450 518 28,800 -1,200 Descending Boston Center
10:27PM 42.6856 -75.8214 87° East 443 510 26,700 -2,160 Descending Boston Center
10:28PM 42.6925 -75.6578 87° East 438 504 24,500 -2,040 Descending Boston Center
10:29PM 42.6989 -75.5000 87° East 428 493 22,300 -2,280 Descending Boston Center
10:30PM 42.7036 -75.3192 88° East 409 471 19,600 -2,100 Descending Boston Center
10:31PM 42.7114 -75.1783 86° East 392 451 18,100 -1,500 Descending Boston Center
10:32PM 42.7147 -75.0372 88° East 373 429 16,600 -1,560 Descending Boston Center
10:33PM 42.7072 -74.9011 94° East 378 435 15,000 -1,560 Descending Boston Center
10:33PM 42.6978 -74.8611 108° East 379 436 14,600 -1,440 Descending Boston Center
10:34PM 42.6831 -74.7589 101° East 368 423 13,600 -1,620 Descending Boston Center
10:34PM 42.6800 -74.7108 95° East 370 426 13,000 -1,620 Descending Boston Center
10:35PM 42.6650 -74.6172 102° East 374 430 12,000 -1,380 Descending Boston Center
10:35PM 42.6597 -74.5744 100° East 369 425 11,600 -1,140 Descending Boston Center
10:36PM 42.6467 -74.4922 102° East 364 419 10,900 -1,020 Descending Boston Center
10:36PM 42.6411 -74.4497 100° East 333 383 10,600 -1,020 Descending Boston Center
10:37PM 42.6319 -74.3761 100° East 320 368 9,900 -1,200 Descending Boston Center
10:37PM 42.6306 -74.3392 93° East 284 327 9,400 -1,500 Descending Boston Center
10:38PM 42.6192 -74.2683 102° East 297 342 8,400 -1,560 Descending Boston Center
10:38PM 42.6153 -74.2428 102° East 282 325 8,000 -1,620 Descending Boston Center
10:39PM 42.6042 -74.1636 101° East 279 321 6,800 -1,680 Descending Boston Center
10:40PM 42.5911 -74.0617 100° East 279 321 5,100 -1,680 Descending Boston Center
10:41PM 42.5797 -73.9628 99° East 273 314 3,500 -840 Descending Boston Center
10:42PM 42.5725 -73.8781 97° East 246 283 3,500 -360 Level Boston Center
10:43PM 42.5881 -73.8106 73° East 194 223 2,800 -600 Descending Boston Center
10:44PM 42.6339 -73.8031 North 142 163 2,400 -600 Descending Boston Center
10:45PM 42.6672 -73.8039 359° North 142 163 1,700 -840 Descending Boston Center
10:46PM 42.7256 -73.8053 359° North 141 162 600 -900 Descending Boston Center